• Join FlightAware (Why Join?)
  • Login
  • US Flag 
02:32AM EST


 

Airport Tracker/Info


-or-


 

Live Flight TrackerFlight Track Log ✈ N1113X ✈ 09-Jul-2013 ✈ KSUN - KMPI

Flight Track Log - Related Links

Times and Time Zones

All times are in EDT time to prevent confusion due to time zone crossing. See the N1113X flight status page for this flight to view local times or setup timezone preferences in your user account.

Time Position Orientation Groundspeed Altitude Reporting Facility
EDT Latitude Longitude Course Direction KTS MPH feet Rate Location/Type
01:56PM 43.2553 -114.2516 192° South  Level FlightAware Approximate
01:57PM 43.2063 -114.2662 192° South  Level FlightAware Approximate
01:58PM 43.1574 -114.2807 192° South  Level FlightAware Approximate
01:59PM 43.1085 -114.2952 192° South  Level FlightAware Approximate
01:59PM 43.2250 -114.3072 192° South 193 222 9,100  Level Salt Lake Center
02:00PM 43.0596 -114.3097 192° South  Level FlightAware Approximate
02:00PM 43.1757 -114.3188 190° South  Level FlightAware Approximate
02:00PM 43.1872 -114.3269 190° South 156 180 9,500  Level Salt Lake Center
02:01PM 43.0107 -114.3242 192° South  Level FlightAware Approximate
02:01PM 43.1467 -114.3522 204° Southwest 154 177 9,900  Level Salt Lake Center
02:02PM 42.9617 -114.3386 192° South  Level FlightAware Approximate
02:02PM 43.1036 -114.3772 203° Southwest 158 182 9,900  Level Salt Lake Center
02:03PM 42.9128 -114.3530 192° South  Level FlightAware Approximate
02:03PM 43.0569 -114.3942 195° South 166 191 9,900  Level Salt Lake Center
02:04PM 42.8639 -114.3674 192° South  Level FlightAware Approximate
02:04PM 43.0047 -114.4044 188° South 178 205 9,900  Level Salt Lake Center
02:05PM 42.9539 -114.4119 186° South 176 203 9,900  Level Salt Lake Center
02:06PM 42.9072 -114.4222 189° South 176 203 9,900  Level Salt Lake Center
02:07PM 42.8567 -114.4297 186° South 176 203 9,900  Level Salt Lake Center
02:08PM 42.8050 -114.4392 188° South 179 206 10,000 240 Climbing Salt Lake Center
02:09PM 42.7556 -114.4464 186° South 174 200 10,400 420 Climbing Salt Lake Center
02:10PM 42.7083 -114.4542 187° South 167 192 10,900 480 Climbing Salt Lake Center
02:11PM 42.6664 -114.4606 186° South 151 174 11,400 420 Climbing Salt Lake Center
02:12PM 42.6250 -114.4681 188° South 144 166 11,800 240 Climbing Salt Lake Center
02:13PM 42.5867 -114.4733 186° South 143 165 11,900  Climbing Salt Lake Center
02:14PM 42.5400 -114.4817 187° South 156 180 11,900  Level Salt Lake Center
02:15PM 42.4900 -114.4911 188° South 168 193 11,900  Level Salt Lake Center
02:16PM 42.4453 -114.5197 205° Southwest 171 197 11,900  Level Salt Lake Center
02:17PM 42.4025 -114.5522 209° Southwest 171 197 11,900  Level Salt Lake Center
02:18PM 42.3592 -114.5844 209° Southwest 170 196 11,900  Level Salt Lake Center
02:19PM 42.3194 -114.6147 209° Southwest 170 196 11,900  Level Salt Lake Center
02:20PM 42.2756 -114.6469 209° Southwest 171 197 11,900  Level Salt Lake Center
02:21PM 42.2322 -114.6800 209° Southwest 170 196 11,900  Level Salt Lake Center
02:22PM 42.1886 -114.7133 210° Southwest 173 199 11,900  Level Salt Lake Center
02:23PM 42.1442 -114.7469 209° Southwest 174 200 11,900  Level Salt Lake Center
02:24PM 42.1011 -114.7792 209° Southwest 174 200 11,900  Level Salt Lake Center
02:25PM 42.0597 -114.8111 210° Southwest 174 200 11,900  Level Salt Lake Center
02:26PM 42.0153 -114.8433 208° Southwest 174 200 12,000  Climbing Salt Lake Center
02:27PM 41.9706 -114.8764 209° Southwest 175 201 11,900  Descending Salt Lake Center
02:28PM 41.9264 -114.9092 209° Southwest 174 200 12,000  Climbing Salt Lake Center
02:30PM 41.8833 -114.9425 210° Southwest 178 205 12,000 -60 Level Salt Lake Center
02:31PM 41.8347 -114.9772 208° Southwest 177 204 11,900  Descending Salt Lake Center
02:32PM 41.7911 -115.0069 207° Southwest 182 209 12,000  Climbing Salt Lake Center
02:33PM 41.7500 -115.0394 211° Southwest 181 208 11,900  Descending Salt Lake Center
02:34PM 41.7000 -115.0747 208° Southwest 180 207 12,000  Climbing Salt Lake Center
02:35PM 41.6581 -115.1069 210° Southwest 181 208 11,900 -60 Descending Salt Lake Center
02:36PM 41.6064 -115.1450 209° Southwest 187 215 11,900  Level Salt Lake Center
02:37PM 41.5644 -115.1769 210° Southwest 184 212 11,900  Level Salt Lake Center
02:38PM 41.5150 -115.2139 209° Southwest 181 208 12,000  Climbing Salt Lake Center
02:39PM 41.4711 -115.2447 208° Southwest 184 212 12,000  Level Salt Lake Center
02:40PM 41.4211 -115.2825 210° Southwest 184 212 12,000  Level Salt Lake Center
02:41PM 41.3792 -115.3167 211° Southwest 185 213 12,100 120 Climbing Salt Lake Center
02:42PM 41.3314 -115.3508 208° Southwest 179 206 12,300 240 Climbing Salt Lake Center
02:43PM 41.2928 -115.3783 208° Southwest 172 198 12,600 180 Climbing Salt Lake Center
02:44PM 41.2461 -115.4094 207° Southwest 168 193 12,700 180 Climbing Salt Lake Center
02:45PM 41.2092 -115.4403 212° Southwest 167 192 13,000 240 Climbing Salt Lake Center
02:46PM 41.1700 -115.4675 208° Southwest 165 190 13,300 300 Climbing Salt Lake Center
02:47PM 41.1258 -115.4994 209° Southwest 163 188 13,700 240 Climbing Salt Lake Center
02:48PM 41.0889 -115.5269 209° Southwest 161 185 13,800 120 Climbing Salt Lake Center
02:49PM 41.0456 -115.5583 209° Southwest 159 183 14,000 60 Climbing Salt Lake Center
02:50PM 41.0047 -115.5894 210° Southwest 166 191 14,000  Level Salt Lake Center
02:51PM 40.9539 -115.6256 208° Southwest 177 204 14,000  Level Salt Lake Center
02:52PM 40.9106 -115.6567 208° Southwest 181 208 14,000  Level Salt Lake Center
02:53PM 40.8597 -115.6939 209° Southwest 185 213 14,000  Level Salt Lake Center
02:54PM 40.8167 -115.7233 207° Southwest 184 212 14,000  Level Salt Lake Center
02:55PM 40.7678 -115.7592 209° Southwest 182 209 14,000  Level Salt Lake Center
02:56PM 40.7533 -115.8161 252° West 182 209 14,000  Level Salt Lake Center
02:57PM 40.7439 -115.8775 259° West 180 207 14,000  Level Salt Lake Center
02:58PM 40.7325 -115.9481 258° West 178 205 14,000  Level Salt Lake Center
03:00PM 40.7222 -116.0092 258° West 178 205 14,000  Level Salt Lake Center
03:01PM 40.7117 -116.0808 259° West 178 205 14,000  Level Salt Lake Center
03:02PM 40.7014 -116.1414 257° West 178 205 14,000  Level Salt Lake Center
03:03PM 40.6892 -116.2122 257° West 178 205 14,000 -60 Level Salt Lake Center
03:04PM 40.6786 -116.2733 257° West 178 205 13,900 -60 Descending Salt Lake Center
03:05PM 40.6681 -116.3444 259° West 178 205 13,900  Level Salt Lake Center
03:06PM 40.6578 -116.4061 258° West 179 206 13,900  Level Salt Lake Center
03:07PM 40.6458 -116.4761 257° West 177 204 13,900  Level Salt Lake Center
03:08PM 40.6361 -116.5369 258° West 177 204 13,900  Level Salt Lake Center
03:09PM 40.6244 -116.6075 258° West 178 205 13,900  Level Salt Lake Center
03:10PM 40.6144 -116.6681 258° West 177 204 13,900  Level Salt Lake Center
03:11PM 40.6025 -116.7392 258° West 178 205 13,900  Level Salt Lake Center
03:12PM 40.5919 -116.8003 257° West 179 206 13,900  Level Salt Lake Center
03:13PM 40.5800 -116.8708 257° West 178 205 13,900  Level Salt Lake Center
03:14PM 40.5697 -116.9297 257° West 176 203 13,900  Level Salt Lake Center
03:15PM 40.5525 -116.9975 252° West 176 203 13,900  Level Salt Lake Center
03:16PM 40.5367 -117.0550 250° West 176 203 13,900  Level Salt Lake Center
03:17PM 40.5194 -117.1233 252° West 176 203 13,900  Level Salt Lake Center
03:18PM 40.5044 -117.1814 251° West 176 203 13,900  Level Salt Lake Center
03:19PM 40.4858 -117.2483 250° West 176 203 13,900  Level Salt Lake Center
03:20PM 40.4708 -117.3067 251° West 176 203 13,900  Level Salt Lake Center
03:21PM 40.4533 -117.3742 251° West 176 203 13,900  Level Salt Lake Center
03:22PM 40.4378 -117.4325 251° West 176 203 13,900  Level Salt Lake Center
03:23PM 40.4194 -117.5000 250° West 178 205 13,900  Level Salt Lake Center
03:24PM 40.4033 -117.5617 251° West 179 206 13,900  Level Salt Lake Center
03:25PM 40.3875 -117.6211 251° West 177 204 13,900  Level Salt Lake Center
03:26PM 40.3706 -117.6825 250° West 174 200 13,900  Level Salt Lake Center
03:27PM 40.3539 -117.7486 252° West 171 197 13,900  Level Salt Lake Center
03:28PM 40.3386 -117.8064 251° West 174 200 13,900  Level Salt Lake Center
03:30PM 40.3222 -117.8653 250° West 178 205 13,900  Level Salt Lake Center
03:31PM 40.3042 -117.9331 251° West 177 204 13,900  Level Salt Lake Center
03:32PM 40.2872 -117.9917 249° West 179 206 13,900  Level Salt Lake Center
03:33PM 40.2689 -118.0594 250° West 178 205 13,900  Level Salt Lake Center
03:34PM 40.2536 -118.1183 251° West 177 204 13,900  Level Salt Lake Center
03:35PM 40.2344 -118.1878 250° West 181 208 13,900  Level Salt Lake Center
03:36PM 40.2194 -118.2461 251° West 177 204 13,900  Level Salt Lake Center
03:37PM 40.2000 -118.3131 249° West 177 204 13,900  Level Salt Lake Center
03:38PM 40.1844 -118.3717 251° West 177 204 13,900  Level Salt Lake Center
03:39PM 40.1664 -118.4386 251° West 176 203 13,900  Level Salt Lake Center
03:40PM 40.1497 -118.4953 249° West 174 200 13,900  Level Salt Lake Center
03:41PM 40.1325 -118.5628 252° West 175 201 14,000  Climbing Oakland Center
03:42PM 40.1069 -118.6153 238° Southwest 175 201 14,000  Level Oakland Center
03:43PM 40.0789 -118.6667 235° Southwest 174 200 14,000  Level Oakland Center
03:44PM 40.0464 -118.7294 236° Southwest 175 201 14,000  Level Oakland Center
03:45PM 40.0178 -118.7819 235° Southwest 177 204 14,000  Level Oakland Center
03:46PM 39.9883 -118.8333 233° Southwest 177 204 14,000 -120 Level Oakland Center
03:47PM 39.9614 -118.8850 236° Southwest 175 201 13,800  Descending Oakland Center
03:48PM 39.9347 -118.9325 234° Southwest 167 192 14,000 60 Climbing Oakland Center
03:49PM 39.9081 -118.9817 235° Southwest 166 191 14,000  Level Oakland Center
03:50PM 39.8803 -119.0311 234° Southwest 168 193 14,000  Level Oakland Center
03:51PM 39.8531 -119.0806 234° Southwest 169 194 14,000  Level Oakland Center
03:52PM 39.8258 -119.1311 235° Southwest 172 198 14,000  Level Oakland Center
03:53PM 39.7942 -119.1892 235° Southwest 165 190 14,000  Level Oakland Center
03:54PM 39.7675 -119.2356 233° Southwest 161 185 14,000  Level Oakland Center
03:55PM 39.7417 -119.2842 235° Southwest 163 188 14,000  Level Oakland Center
03:56PM 39.7133 -119.3333 233° Southwest 168 193 14,000  Level Oakland Center
03:57PM 39.6875 -119.3844 237° Southwest 170 196 14,000  Level Oakland Center
03:58PM 39.6578 -119.4342 232° Southwest 173 199 14,000  Level Oakland Center
03:59PM 39.6289 -119.4847 233° Southwest 174 200 14,000  Level Oakland Center
04:00PM 39.6019 -119.5386 237° Southwest 177 204 14,000  Level Oakland Center
04:01PM 39.5667 -119.5986 233° Southwest 176 203 14,000 -60 Level Oakland Center
04:02PM 39.5500 -119.6333 238° Southwest 175 201 13,900 -60 Descending Northern Cal TRACON
04:03PM 39.5167 -119.6833 229° Southwest 167 192 13,900  Level Northern Cal TRACON
04:04PM 39.4833 -119.7333 229° Southwest 184 212 13,900  Level Northern Cal TRACON
04:05PM 39.4500 -119.7167 159° South 151 174 13,900  Level Northern Cal TRACON
04:06PM 39.4000 -119.6833 153° Southeast 157 181 13,900  Level Northern Cal TRACON
04:07PM 39.3667 -119.6667 159° South 162 186 14,000  Climbing Northern Cal TRACON
04:08PM 39.3167 -119.6667 180° South 166 191 13,900 -60 Descending Northern Cal TRACON
04:09PM 39.2667 -119.6833 194° South 164 189 13,900  Level Northern Cal TRACON
04:10PM 39.2333 -119.6833 180° South 151 174 13,900  Level Northern Cal TRACON
04:11PM 39.1833 -119.6833 180° South 146 168 14,000  Climbing Northern Cal TRACON
04:12PM 39.1681 -119.6806 172° South 150 173 13,900  Descending Oakland Center
04:13PM 39.1261 -119.6825 182° South 152 175 14,000  Climbing Oakland Center
04:14PM 39.0817 -119.6864 184° South 158 182 13,900 -120 Descending Oakland Center
04:15PM 39.0381 -119.6942 188° South 159 183 13,800  Descending Oakland Center
04:16PM 38.9939 -119.7081 194° South 163 188 13,900  Climbing Oakland Center
04:17PM 38.9511 -119.7228 195° South 162 186 13,900  Level Oakland Center
04:18PM 38.9083 -119.7325 190° South 159 183 14,000  Climbing Oakland Center
04:19PM 38.8550 -119.7367 183° South 160 184 13,900 -120 Descending Oakland Center
04:20PM 38.8117 -119.7425 186° South 158 182 13,800  Descending Oakland Center
04:21PM 38.7658 -119.7456 183° South 162 186 13,900  Climbing Oakland Center
04:22PM 38.7208 -119.7442 179° South 161 185 13,900  Level Oakland Center
04:23PM 38.6761 -119.7464 182° South 162 186 13,900  Level Oakland Center
04:24PM 38.6311 -119.7467 180° South 161 185 14,000  Climbing Oakland Center
04:25PM 38.5917 -119.7797 213° Southwest 172 198 14,000 -60 Level Oakland Center
04:26PM 38.5472 -119.8047 204° Southwest 166 191 13,900  Descending Oakland Center
04:27PM 38.5064 -119.8147 191° South 157 181 14,000 -60 Climbing Oakland Center
04:28PM 38.4653 -119.8133 178° South 153 176 13,800 -120 Descending Oakland Center
04:29PM 38.4206 -119.8142 181° South 156 180 13,800  Level Oakland Center
04:30PM 38.3744 -119.8167 182° South 160 184 13,800  Level Oakland Center
04:31PM 38.3333 -119.7953 158° South 167 192 13,800  Level Oakland Center
04:32PM 38.2808 -119.7831 170° South 161 185 13,800 -180 Level Oakland Center
04:33PM 38.2356 -119.7672 165° South 165 190 13,500 -300 Descending Oakland Center
04:34PM 38.1878 -119.7594 173° South 169 194 13,300 -240 Descending Oakland Center
04:35PM 38.1419 -119.7431 164° South 174 200 13,100 -180 Descending Oakland Center
04:36PM 38.0961 -119.7267 164° South 173 199 13,000 -120 Descending Oakland Center
04:37PM 38.0544 -119.7050 158° South 166 191 12,900 -60 Descending Oakland Center
04:38PM 38.0128 -119.6900 164° South 158 182 12,900  Level Oakland Center
04:39PM 37.9658 -119.6750 166° South 168 193 12,900 -60 Level Oakland Center
04:40PM 37.9208 -119.6597 165° South 170 196 12,800 -300 Descending Oakland Center
04:41PM 37.8708 -119.6422 165° South 180 207 12,300 -420 Descending Oakland Center
04:42PM 37.8239 -119.6225 162° South 193 222 12,000 -480 Descending Oakland Center
04:43PM 37.7683 -119.5914 156° South 188 216 11,400 -600 Descending Oakland Center
04:44PM 37.7233 -119.5989 188° South 196 226 10,800 -480 Descending Oakland Center
04:45PM 37.7075 -119.6672 254° West 189 217 10,500 -600 Descending Oakland Center
04:46PM 37.6983 -119.7281 259° West 181 208 9,700 -840 Descending Oakland Center